sensor_id;sensor_type;location;lat;lon;timestamp;P1;durP1;ratioP1;P2;durP2;ratioP2
6372;SDS011;3219;51.362;7.074;2023-04-03T00:01:35;7.13;;;4.70;;
6372;SDS011;3219;51.362;7.074;2023-04-03T00:04:03;5.82;;;4.60;;
6372;SDS011;3219;51.362;7.074;2023-04-03T00:06:30;6.28;;;4.60;;
6372;SDS011;3219;51.362;7.074;2023-04-03T00:08:58;6.45;;;4.75;;
6372;SDS011;3219;51.362;7.074;2023-04-03T00:11:25;6.75;;;4.65;;
6372;SDS011;3219;51.362;7.074;2023-04-03T00:13:52;5.28;;;4.20;;
6372;SDS011;3219;51.362;7.074;2023-04-03T00:16:18;7.80;;;4.30;;
6372;SDS011;3219;51.362;7.074;2023-04-03T00:18:45;7.22;;;4.55;;
6372;SDS011;3219;51.362;7.074;2023-04-03T00:21:12;6.03;;;4.68;;
6372;SDS011;3219;51.362;7.074;2023-04-03T00:23:40;7.43;;;4.70;;
6372;SDS011;3219;51.362;7.074;2023-04-03T00:26:08;7.80;;;5.00;;
6372;SDS011;3219;51.362;7.074;2023-04-03T00:28:35;8.40;;;4.95;;
6372;SDS011;3219;51.362;7.074;2023-04-03T00:31:02;6.68;;;4.50;;
6372;SDS011;3219;51.362;7.074;2023-04-03T00:33:29;9.23;;;5.32;;
6372;SDS011;3219;51.362;7.074;2023-04-03T00:35:55;8.75;;;5.68;;
6372;SDS011;3219;51.362;7.074;2023-04-03T00:38:22;8.32;;;5.72;;
6372;SDS011;3219;51.362;7.074;2023-04-03T00:40:49;6.07;;;4.60;;
6372;SDS011;3219;51.362;7.074;2023-04-03T00:43:18;10.23;;;5.60;;
6372;SDS011;3219;51.362;7.074;2023-04-03T00:45:46;9.93;;;5.53;;
6372;SDS011;3219;51.362;7.074;2023-04-03T00:48:15;11.43;;;5.68;;
6372;SDS011;3219;51.362;7.074;2023-04-03T00:50:44;9.95;;;5.75;;
6372;SDS011;3219;51.362;7.074;2023-04-03T00:53:13;9.35;;;5.30;;
6372;SDS011;3219;51.362;7.074;2023-04-03T00:55:42;9.75;;;5.97;;
6372;SDS011;3219;51.362;7.074;2023-04-03T00:58:09;12.48;;;6.18;;
6372;SDS011;3219;51.362;7.074;2023-04-03T01:00:40;8.02;;;5.90;;
6372;SDS011;3219;51.362;7.074;2023-04-03T01:03:12;7.45;;;5.40;;
6372;SDS011;3219;51.362;7.074;2023-04-03T01:05:39;9.13;;;6.13;;
6372;SDS011;3219;51.362;7.074;2023-04-03T01:08:06;8.18;;;6.05;;
6372;SDS011;3219;51.362;7.074;2023-04-03T01:10:33;9.18;;;6.63;;
6372;SDS011;3219;51.362;7.074;2023-04-03T01:13:00;9.23;;;5.97;;
6372;SDS011;3219;51.362;7.074;2023-04-03T01:15:27;10.63;;;6.60;;
6372;SDS011;3219;51.362;7.074;2023-04-03T01:17:56;9.70;;;6.28;;
6372;SDS011;3219;51.362;7.074;2023-04-03T01:20:36;13.25;;;8.23;;
6372;SDS011;3219;51.362;7.074;2023-04-03T01:23:28;10.23;;;7.03;;
6372;SDS011;3219;51.362;7.074;2023-04-03T01:26:02;11.63;;;7.70;;
6372;SDS011;3219;51.362;7.074;2023-04-03T01:28:30;14.50;;;7.95;;
6372;SDS011;3219;51.362;7.074;2023-04-03T01:31:00;11.25;;;6.68;;
6372;SDS011;3219;51.362;7.074;2023-04-03T01:33:35;10.45;;;6.93;;
6372;SDS011;3219;51.362;7.074;2023-04-03T01:36:03;10.57;;;7.25;;
6372;SDS011;3219;51.362;7.074;2023-04-03T01:38:31;10.25;;;6.22;;
6372;SDS011;3219;51.362;7.074;2023-04-03T01:40:58;13.40;;;6.85;;
6372;SDS011;3219;51.362;7.074;2023-04-03T01:43:25;12.73;;;6.88;;
6372;SDS011;3219;51.362;7.074;2023-04-03T01:45:51;14.55;;;7.18;;
6372;SDS011;3219;51.362;7.074;2023-04-03T01:48:19;9.63;;;5.97;;
6372;SDS011;3219;51.362;7.074;2023-04-03T01:50:47;10.70;;;6.15;;
6372;SDS011;3219;51.362;7.074;2023-04-03T01:53:14;10.98;;;6.35;;
6372;SDS011;3219;51.362;7.074;2023-04-03T01:55:41;7.72;;;5.93;;
6372;SDS011;3219;51.362;7.074;2023-04-03T01:58:08;11.57;;;6.13;;
6372;SDS011;3219;51.362;7.074;2023-04-03T02:00:34;7.93;;;5.63;;
6372;SDS011;3219;51.362;7.074;2023-04-03T02:03:01;12.68;;;6.32;;
6372;SDS011;3219;51.362;7.074;2023-04-03T02:05:28;9.43;;;5.70;;
6372;SDS011;3219;51.362;7.074;2023-04-03T02:07:57;9.40;;;5.88;;
6372;SDS011;3219;51.362;7.074;2023-04-03T02:10:24;9.35;;;5.70;;
6372;SDS011;3219;51.362;7.074;2023-04-03T02:12:51;10.40;;;6.07;;
6372;SDS011;3219;51.362;7.074;2023-04-03T02:15:18;9.57;;;6.07;;
6372;SDS011;3219;51.362;7.074;2023-04-03T02:17:45;11.55;;;6.43;;
6372;SDS011;3219;51.362;7.074;2023-04-03T02:20:11;10.65;;;5.97;;
6372;SDS011;3219;51.362;7.074;2023-04-03T02:22:38;10.57;;;6.03;;
6372;SDS011;3219;51.362;7.074;2023-04-03T02:25:07;11.70;;;5.78;;
6372;SDS011;3219;51.362;7.074;2023-04-03T02:27:35;10.43;;;6.65;;
6372;SDS011;3219;51.362;7.074;2023-04-03T02:30:02;10.57;;;5.78;;
6372;SDS011;3219;51.362;7.074;2023-04-03T02:32:30;9.98;;;5.88;;
6372;SDS011;3219;51.362;7.074;2023-04-03T02:34:57;12.30;;;5.88;;
6372;SDS011;3219;51.362;7.074;2023-04-03T02:37:24;11.70;;;6.30;;
6372;SDS011;3219;51.362;7.074;2023-04-03T02:39:51;12.10;;;6.32;;
6372;SDS011;3219;51.362;7.074;2023-04-03T02:42:19;9.68;;;6.50;;
6372;SDS011;3219;51.362;7.074;2023-04-03T02:44:46;9.82;;;6.03;;
6372;SDS011;3219;51.362;7.074;2023-04-03T02:47:12;10.25;;;6.05;;
6372;SDS011;3219;51.362;7.074;2023-04-03T02:49:39;11.68;;;5.70;;
6372;SDS011;3219;51.362;7.074;2023-04-03T02:52:08;12.90;;;6.22;;
6372;SDS011;3219;51.362;7.074;2023-04-03T02:54:35;8.85;;;5.60;;
6372;SDS011;3219;51.362;7.074;2023-04-03T02:57:02;9.90;;;5.85;;
6372;SDS011;3219;51.362;7.074;2023-04-03T02:59:30;12.10;;;5.78;;
6372;SDS011;3219;51.362;7.074;2023-04-03T03:01:57;8.10;;;5.78;;
6372;SDS011;3219;51.362;7.074;2023-04-03T03:04:23;8.68;;;5.50;;
6372;SDS011;3219;51.362;7.074;2023-04-03T03:06:50;8.77;;;5.20;;
6372;SDS011;3219;51.362;7.074;2023-04-03T03:09:17;12.15;;;6.47;;
6372;SDS011;3219;51.362;7.074;2023-04-03T03:11:44;10.20;;;5.40;;
6372;SDS011;3219;51.362;7.074;2023-04-03T03:14:11;8.85;;;4.97;;
6372;SDS011;3219;51.362;7.074;2023-04-03T03:16:39;10.25;;;5.13;;
6372;SDS011;3219;51.362;7.074;2023-04-03T03:19:06;11.40;;;4.82;;
6372;SDS011;3219;51.362;7.074;2023-04-03T03:21:32;8.45;;;4.68;;
6372;SDS011;3219;51.362;7.074;2023-04-03T03:23:59;11.90;;;4.95;;
6372;SDS011;3219;51.362;7.074;2023-04-03T03:26:26;11.10;;;5.18;;
6372;SDS011;3219;51.362;7.074;2023-04-03T03:28:53;8.38;;;4.35;;
6372;SDS011;3219;51.362;7.074;2023-04-03T03:31:20;11.65;;;4.97;;
6372;SDS011;3219;51.362;7.074;2023-04-03T03:33:48;11.52;;;4.43;;
6372;SDS011;3219;51.362;7.074;2023-04-03T03:36:15;12.52;;;4.80;;
6372;SDS011;3219;51.362;7.074;2023-04-03T03:38:41;10.63;;;4.53;;
6372;SDS011;3219;51.362;7.074;2023-04-03T03:41:08;9.68;;;4.80;;
6372;SDS011;3219;51.362;7.074;2023-04-03T03:43:35;9.18;;;4.32;;
6372;SDS011;3219;51.362;7.074;2023-04-03T03:46:01;10.07;;;4.60;;
6372;SDS011;3219;51.362;7.074;2023-04-03T03:48:28;6.57;;;4.03;;
6372;SDS011;3219;51.362;7.074;2023-04-03T03:50:56;9.38;;;4.20;;
6372;SDS011;3219;51.362;7.074;2023-04-03T03:53:23;9.27;;;4.10;;
6372;SDS011;3219;51.362;7.074;2023-04-03T03:55:50;12.25;;;4.15;;
6372;SDS011;3219;51.362;7.074;2023-04-03T03:58:17;6.35;;;3.65;;
6372;SDS011;3219;51.362;7.074;2023-04-03T04:00:44;8.40;;;4.28;;
6372;SDS011;3219;51.362;7.074;2023-04-03T04:03:10;6.28;;;3.70;;
6372;SDS011;3219;51.362;7.074;2023-04-03T04:05:37;13.02;;;3.60;;
6372;SDS011;3219;51.362;7.074;2023-04-03T04:08:05;12.35;;;4.07;;
6372;SDS011;3219;51.362;7.074;2023-04-03T04:10:32;11.20;;;4.05;;
6372;SDS011;3219;51.362;7.074;2023-04-03T04:12:59;11.70;;;3.90;;
6372;SDS011;3219;51.362;7.074;2023-04-03T04:15:26;7.22;;;3.80;;
6372;SDS011;3219;51.362;7.074;2023-04-03T04:17:52;6.43;;;3.85;;
6372;SDS011;3219;51.362;7.074;2023-04-03T04:20:19;12.93;;;3.75;;
6372;SDS011;3219;51.362;7.074;2023-04-03T04:22:46;13.02;;;4.15;;
6372;SDS011;3219;51.362;7.074;2023-04-03T04:25:14;7.45;;;4.10;;
6372;SDS011;3219;51.362;7.074;2023-04-03T04:27:41;9.38;;;3.53;;
6372;SDS011;3219;51.362;7.074;2023-04-03T04:30:08;12.40;;;4.30;;
6372;SDS011;3219;51.362;7.074;2023-04-03T04:32:36;7.43;;;3.78;;
6372;SDS011;3219;51.362;7.074;2023-04-03T04:35:03;10.85;;;3.47;;
6372;SDS011;3219;51.362;7.074;2023-04-03T04:37:30;8.60;;;4.10;;
6372;SDS011;3219;51.362;7.074;2023-04-03T04:39:57;9.35;;;4.15;;
6372;SDS011;3219;51.362;7.074;2023-04-03T04:42:26;8.68;;;3.78;;
6372;SDS011;3219;51.362;7.074;2023-04-03T04:44:52;12.38;;;4.22;;
6372;SDS011;3219;51.362;7.074;2023-04-03T04:47:19;8.70;;;4.30;;
6372;SDS011;3219;51.362;7.074;2023-04-03T04:49:46;14.82;;;4.53;;
6372;SDS011;3219;51.362;7.074;2023-04-03T04:52:13;9.60;;;3.92;;
6372;SDS011;3219;51.362;7.074;2023-04-03T04:54:40;9.05;;;3.50;;
6372;SDS011;3219;51.362;7.074;2023-04-03T04:57:06;8.77;;;3.45;;
6372;SDS011;3219;51.362;7.074;2023-04-03T04:59:35;10.00;;;3.70;;
6372;SDS011;3219;51.362;7.074;2023-04-03T05:02:01;7.13;;;3.70;;
6372;SDS011;3219;51.362;7.074;2023-04-03T05:04:28;10.35;;;4.18;;
6372;SDS011;3219;51.362;7.074;2023-04-03T05:06:55;12.95;;;4.65;;
6372;SDS011;3219;51.362;7.074;2023-04-03T05:09:22;9.07;;;3.90;;
6372;SDS011;3219;51.362;7.074;2023-04-03T05:11:48;11.15;;;4.63;;
6372;SDS011;3219;51.362;7.074;2023-04-03T05:14:15;11.55;;;3.97;;
6372;SDS011;3219;51.362;7.074;2023-04-03T05:16:44;6.85;;;3.50;;
6372;SDS011;3219;51.362;7.074;2023-04-03T05:19:10;11.52;;;5.10;;
6372;SDS011;3219;51.362;7.074;2023-04-03T05:21:37;11.40;;;4.28;;
6372;SDS011;3219;51.362;7.074;2023-04-03T05:24:04;8.23;;;4.30;;
6372;SDS011;3219;51.362;7.074;2023-04-03T05:26:34;8.25;;;4.00;;
6372;SDS011;3219;51.362;7.074;2023-04-03T05:29:01;10.35;;;3.92;;
6372;SDS011;3219;51.362;7.074;2023-04-03T05:31:27;8.15;;;4.43;;
6372;SDS011;3219;51.362;7.074;2023-04-03T05:33:56;9.10;;;3.97;;
6372;SDS011;3219;51.362;7.074;2023-04-03T05:36:23;12.18;;;5.10;;
6372;SDS011;3219;51.362;7.074;2023-04-03T05:38:50;7.82;;;3.92;;
6372;SDS011;3219;51.362;7.074;2023-04-03T05:41:17;7.00;;;3.72;;
6372;SDS011;3219;51.362;7.074;2023-04-03T05:43:45;10.32;;;3.58;;
6372;SDS011;3219;51.362;7.074;2023-04-03T05:46:12;7.50;;;3.22;;
6372;SDS011;3219;51.362;7.074;2023-04-03T05:48:40;7.35;;;3.40;;
6372;SDS011;3219;51.362;7.074;2023-04-03T05:51:12;9.93;;;4.05;;
6372;SDS011;3219;51.362;7.074;2023-04-03T05:53:41;4.60;;;3.00;;
6372;SDS011;3219;51.362;7.074;2023-04-03T05:56:09;7.80;;;3.03;;
6372;SDS011;3219;51.362;7.074;2023-04-03T05:58:36;7.85;;;3.03;;
6372;SDS011;3219;51.362;7.074;2023-04-03T06:01:03;7.70;;;2.85;;
6372;SDS011;3219;51.362;7.074;2023-04-03T06:03:30;7.28;;;3.35;;
6372;SDS011;3219;51.362;7.074;2023-04-03T06:05:57;5.32;;;2.80;;
6372;SDS011;3219;51.362;7.074;2023-04-03T06:08:25;7.78;;;2.78;;
6372;SDS011;3219;51.362;7.074;2023-04-03T06:10:52;7.88;;;2.90;;
6372;SDS011;3219;51.362;7.074;2023-04-03T06:13:19;11.07;;;3.63;;
6372;SDS011;3219;51.362;7.074;2023-04-03T06:15:46;9.38;;;3.28;;
6372;SDS011;3219;51.362;7.074;2023-04-03T06:18:13;8.63;;;3.38;;
6372;SDS011;3219;51.362;7.074;2023-04-03T06:20:41;7.07;;;3.38;;
6372;SDS011;3219;51.362;7.074;2023-04-03T06:23:08;9.57;;;3.42;;
6372;SDS011;3219;51.362;7.074;2023-04-03T06:25:36;8.50;;;3.53;;
6372;SDS011;3219;51.362;7.074;2023-04-03T06:28:03;8.57;;;2.97;;
6372;SDS011;3219;51.362;7.074;2023-04-03T06:30:30;8.27;;;2.97;;
6372;SDS011;3219;51.362;7.074;2023-04-03T06:32:57;6.38;;;2.75;;
6372;SDS011;3219;51.362;7.074;2023-04-03T06:35:24;8.50;;;2.67;;
6372;SDS011;3219;51.362;7.074;2023-04-03T06:37:52;5.88;;;2.75;;
6372;SDS011;3219;51.362;7.074;2023-04-03T06:40:19;7.90;;;3.35;;
6372;SDS011;3219;51.362;7.074;2023-04-03T06:42:49;7.50;;;3.22;;
6372;SDS011;3219;51.362;7.074;2023-04-03T06:45:16;10.07;;;3.35;;
6372;SDS011;3219;51.362;7.074;2023-04-03T06:47:43;6.72;;;3.42;;
6372;SDS011;3219;51.362;7.074;2023-04-03T06:50:11;7.97;;;3.40;;
6372;SDS011;3219;51.362;7.074;2023-04-03T06:52:39;9.88;;;3.13;;
6372;SDS011;3219;51.362;7.074;2023-04-03T06:55:06;6.95;;;3.22;;
6372;SDS011;3219;51.362;7.074;2023-04-03T06:57:34;8.00;;;3.38;;
6372;SDS011;3219;51.362;7.074;2023-04-03T07:00:03;6.03;;;3.10;;
6372;SDS011;3219;51.362;7.074;2023-04-03T07:02:31;9.85;;;3.20;;
6372;SDS011;3219;51.362;7.074;2023-04-03T07:04:58;8.02;;;3.33;;
6372;SDS011;3219;51.362;7.074;2023-04-03T07:07:25;11.75;;;3.47;;
6372;SDS011;3219;51.362;7.074;2023-04-03T07:09:52;6.43;;;3.22;;
6372;SDS011;3219;51.362;7.074;2023-04-03T07:12:19;8.57;;;3.72;;
6372;SDS011;3219;51.362;7.074;2023-04-03T07:14:46;8.95;;;3.65;;
6372;SDS011;3219;51.362;7.074;2023-04-03T07:17:14;9.93;;;3.45;;
6372;SDS011;3219;51.362;7.074;2023-04-03T07:19:40;9.70;;;3.22;;
6372;SDS011;3219;51.362;7.074;2023-04-03T07:22:07;7.03;;;3.15;;
6372;SDS011;3219;51.362;7.074;2023-04-03T07:24:36;6.78;;;2.78;;
6372;SDS011;3219;51.362;7.074;2023-04-03T07:27:03;10.82;;;3.42;;
6372;SDS011;3219;51.362;7.074;2023-04-03T07:29:29;11.00;;;3.13;;
6372;SDS011;3219;51.362;7.074;2023-04-03T07:31:56;8.18;;;2.70;;
6372;SDS011;3219;51.362;7.074;2023-04-03T07:34:24;7.40;;;3.15;;
6372;SDS011;3219;51.362;7.074;2023-04-03T07:36:51;8.70;;;2.60;;
6372;SDS011;3219;51.362;7.074;2023-04-03T07:39:18;6.55;;;2.80;;
6372;SDS011;3219;51.362;7.074;2023-04-03T07:41:45;6.63;;;2.45;;
6372;SDS011;3219;51.362;7.074;2023-04-03T07:44:11;5.85;;;2.50;;
6372;SDS011;3219;51.362;7.074;2023-04-03T07:46:38;5.78;;;2.65;;
6372;SDS011;3219;51.362;7.074;2023-04-03T07:49:05;4.75;;;2.67;;
6372;SDS011;3219;51.362;7.074;2023-04-03T07:51:33;5.40;;;2.28;;
6372;SDS011;3219;51.362;7.074;2023-04-03T07:54:00;5.00;;;2.42;;
6372;SDS011;3219;51.362;7.074;2023-04-03T07:56:27;8.30;;;2.72;;
6372;SDS011;3219;51.362;7.074;2023-04-03T07:58:54;7.57;;;2.75;;
6372;SDS011;3219;51.362;7.074;2023-04-03T08:01:21;5.45;;;2.55;;
6372;SDS011;3219;51.362;7.074;2023-04-03T08:03:48;7.78;;;2.58;;
6372;SDS011;3219;51.362;7.074;2023-04-03T08:06:15;9.15;;;2.70;;
6372;SDS011;3219;51.362;7.074;2023-04-03T08:08:44;7.18;;;2.53;;
6372;SDS011;3219;51.362;7.074;2023-04-03T08:11:10;8.05;;;2.95;;
6372;SDS011;3219;51.362;7.074;2023-04-03T08:13:37;8.70;;;2.35;;
6372;SDS011;3219;51.362;7.074;2023-04-03T08:16:07;5.10;;;2.17;;
6372;SDS011;3219;51.362;7.074;2023-04-03T08:18:35;7.28;;;2.67;;
6372;SDS011;3219;51.362;7.074;2023-04-03T08:21:04;7.53;;;2.75;;
6372;SDS011;3219;51.362;7.074;2023-04-03T08:23:32;6.45;;;2.13;;
6372;SDS011;3219;51.362;7.074;2023-04-03T08:26:00;7.43;;;3.05;;
6372;SDS011;3219;51.362;7.074;2023-04-03T08:28:32;8.32;;;2.97;;
6372;SDS011;3219;51.362;7.074;2023-04-03T08:31:02;6.43;;;2.80;;
6372;SDS011;3219;51.362;7.074;2023-04-03T08:35:57;5.95;;;2.67;;
6372;SDS011;3219;51.362;7.074;2023-04-03T08:38:24;7.07;;;2.60;;
6372;SDS011;3219;51.362;7.074;2023-04-03T08:41:00;6.35;;;2.65;;
6372;SDS011;3219;51.362;7.074;2023-04-03T08:43:33;6.43;;;2.45;;
6372;SDS011;3219;51.362;7.074;2023-04-03T08:46:10;7.60;;;2.50;;
6372;SDS011;3219;51.362;7.074;2023-04-03T08:48:40;6.85;;;2.42;;
6372;SDS011;3219;51.362;7.074;2023-04-03T08:51:10;5.88;;;2.30;;
6372;SDS011;3219;51.362;7.074;2023-04-03T08:53:41;6.53;;;2.17;;
6372;SDS011;3219;51.362;7.074;2023-04-03T08:56:12;3.70;;;1.95;;
6372;SDS011;3219;51.362;7.074;2023-04-03T08:58:44;5.15;;;2.28;;
6372;SDS011;3219;51.362;7.074;2023-04-03T09:01:17;7.13;;;2.75;;
6372;SDS011;3219;51.362;7.074;2023-04-03T09:03:46;3.90;;;1.90;;
6372;SDS011;3219;51.362;7.074;2023-04-03T09:06:14;7.72;;;2.75;;
6372;SDS011;3219;51.362;7.074;2023-04-03T09:11:19;5.22;;;1.80;;
6372;SDS011;3219;51.362;7.074;2023-04-03T09:13:50;4.75;;;2.17;;
6372;SDS011;3219;51.362;7.074;2023-04-03T09:16:25;6.28;;;1.90;;
6372;SDS011;3219;51.362;7.074;2023-04-03T09:19:02;4.82;;;2.00;;
6372;SDS011;3219;51.362;7.074;2023-04-03T09:21:40;4.80;;;2.30;;
6372;SDS011;3219;51.362;7.074;2023-04-03T09:24:08;6.60;;;2.30;;
6372;SDS011;3219;51.362;7.074;2023-04-03T09:26:41;7.35;;;2.30;;
6372;SDS011;3219;51.362;7.074;2023-04-03T09:29:14;7.57;;;2.38;;
6372;SDS011;3219;51.362;7.074;2023-04-03T09:31:44;4.45;;;2.47;;
6372;SDS011;3219;51.362;7.074;2023-04-03T09:34:19;5.53;;;2.22;;
6372;SDS011;3219;51.362;7.074;2023-04-03T09:36:49;7.38;;;2.40;;
6372;SDS011;3219;51.362;7.074;2023-04-03T09:39:18;5.43;;;2.25;;
6372;SDS011;3219;51.362;7.074;2023-04-03T09:41:58;6.60;;;2.03;;
6372;SDS011;3219;51.362;7.074;2023-04-03T09:44:27;7.53;;;2.45;;
6372;SDS011;3219;51.362;7.074;2023-04-03T09:46:56;8.98;;;2.33;;
6372;SDS011;3219;51.362;7.074;2023-04-03T09:49:23;5.80;;;2.15;;
6372;SDS011;3219;51.362;7.074;2023-04-03T09:51:50;4.40;;;1.95;;
6372;SDS011;3219;51.362;7.074;2023-04-03T09:57:09;6.18;;;2.35;;
6372;SDS011;3219;51.362;7.074;2023-04-03T09:59:40;6.35;;;1.85;;
6372;SDS011;3219;51.362;7.074;2023-04-03T10:02:28;2.78;;;1.70;;
6372;SDS011;3219;51.362;7.074;2023-04-03T10:05:04;5.85;;;2.35;;
6372;SDS011;3219;51.362;7.074;2023-04-03T10:07:52;5.50;;;2.05;;
6372;SDS011;3219;51.362;7.074;2023-04-03T10:10:34;5.35;;;1.95;;
6372;SDS011;3219;51.362;7.074;2023-04-03T10:13:07;5.32;;;1.80;;
6372;SDS011;3219;51.362;7.074;2023-04-03T10:15:39;3.97;;;2.08;;
6372;SDS011;3219;51.362;7.074;2023-04-03T10:18:13;3.85;;;1.60;;
6372;SDS011;3219;51.362;7.074;2023-04-03T10:20:53;5.00;;;2.10;;
6372;SDS011;3219;51.362;7.074;2023-04-03T10:23:24;4.90;;;1.90;;
6372;SDS011;3219;51.362;7.074;2023-04-03T10:26:00;3.60;;;1.70;;
6372;SDS011;3219;51.362;7.074;2023-04-03T10:28:38;8.85;;;2.10;;
6372;SDS011;3219;51.362;7.074;2023-04-03T10:31:13;4.38;;;1.70;;
6372;SDS011;3219;51.362;7.074;2023-04-03T10:33:51;4.78;;;1.80;;
6372;SDS011;3219;51.362;7.074;2023-04-03T10:36:25;3.17;;;1.85;;
6372;SDS011;3219;51.362;7.074;2023-04-03T10:39:02;5.28;;;1.70;;
6372;SDS011;3219;51.362;7.074;2023-04-03T10:41:50;3.92;;;1.70;;
6372;SDS011;3219;51.362;7.074;2023-04-03T10:44:29;5.78;;;2.40;;
6372;SDS011;3219;51.362;7.074;2023-04-03T10:47:05;3.42;;;1.60;;
6372;SDS011;3219;51.362;7.074;2023-04-03T10:49:43;5.07;;;1.95;;
6372;SDS011;3219;51.362;7.074;2023-04-03T10:52:17;7.15;;;1.70;;
6372;SDS011;3219;51.362;7.074;2023-04-03T10:54:49;4.70;;;1.73;;
6372;SDS011;3219;51.362;7.074;2023-04-03T10:57:25;4.00;;;1.70;;
6372;SDS011;3219;51.362;7.074;2023-04-03T10:59:55;4.90;;;1.80;;
6372;SDS011;3219;51.362;7.074;2023-04-03T11:02:26;4.78;;;1.80;;
6372;SDS011;3219;51.362;7.074;2023-04-03T11:04:56;5.03;;;2.25;;
6372;SDS011;3219;51.362;7.074;2023-04-03T11:07:28;5.30;;;2.08;;
6372;SDS011;3219;51.362;7.074;2023-04-03T11:09:59;4.80;;;2.10;;
6372;SDS011;3219;51.362;7.074;2023-04-03T11:12:33;4.72;;;2.08;;
6372;SDS011;3219;51.362;7.074;2023-04-03T11:15:10;3.90;;;1.90;;
6372;SDS011;3219;51.362;7.074;2023-04-03T11:17:39;3.55;;;1.80;;
6372;SDS011;3219;51.362;7.074;2023-04-03T11:20:14;3.47;;;1.67;;
6372;SDS011;3219;51.362;7.074;2023-04-03T11:22:45;4.22;;;1.88;;
6372;SDS011;3219;51.362;7.074;2023-04-03T11:27:47;3.90;;;1.52;;
6372;SDS011;3219;51.362;7.074;2023-04-03T11:30:19;2.88;;;1.52;;
6372;SDS011;3219;51.362;7.074;2023-04-03T11:35:41;4.90;;;1.55;;
6372;SDS011;3219;51.362;7.074;2023-04-03T11:38:10;4.07;;;2.10;;
6372;SDS011;3219;51.362;7.074;2023-04-03T11:40:44;3.05;;;1.52;;
6372;SDS011;3219;51.362;7.074;2023-04-03T11:43:18;4.30;;;1.83;;
6372;SDS011;3219;51.362;7.074;2023-04-03T11:45:51;4.38;;;1.90;;
6372;SDS011;3219;51.362;7.074;2023-04-03T11:57:23;5.03;;;1.70;;
6372;SDS011;3219;51.362;7.074;2023-04-03T12:06:50;1.77;;;1.27;;
6372;SDS011;3219;51.362;7.074;2023-04-03T12:12:42;2.80;;;1.52;;
6372;SDS011;3219;51.362;7.074;2023-04-03T12:15:26;3.92;;;1.65;;
6372;SDS011;3219;51.362;7.074;2023-04-03T12:21:10;2.47;;;1.33;;
6372;SDS011;3219;51.362;7.074;2023-04-03T12:26:33;2.47;;;1.40;;
6372;SDS011;3219;51.362;7.074;2023-04-03T12:29:10;3.00;;;1.50;;
6372;SDS011;3219;51.362;7.074;2023-04-03T12:31:41;4.68;;;1.67;;
6372;SDS011;3219;51.362;7.074;2023-04-03T12:34:17;4.22;;;1.70;;
6372;SDS011;3219;51.362;7.074;2023-04-03T12:36:55;4.20;;;1.52;;
6372;SDS011;3219;51.362;7.074;2023-04-03T12:39:35;4.38;;;1.80;;
6372;SDS011;3219;51.362;7.074;2023-04-03T12:42:23;5.15;;;1.70;;
6372;SDS011;3219;51.362;7.074;2023-04-03T12:45:03;4.65;;;1.52;;
6372;SDS011;3219;51.362;7.074;2023-04-03T12:47:41;3.50;;;1.95;;
6372;SDS011;3219;51.362;7.074;2023-04-03T12:50:16;4.38;;;1.85;;
6372;SDS011;3219;51.362;7.074;2023-04-03T12:52:47;4.30;;;1.77;;
6372;SDS011;3219;51.362;7.074;2023-04-03T12:55:26;5.03;;;2.22;;
6372;SDS011;3219;51.362;7.074;2023-04-03T12:57:53;2.88;;;1.60;;
6372;SDS011;3219;51.362;7.074;2023-04-03T13:00:22;5.80;;;1.45;;
6372;SDS011;3219;51.362;7.074;2023-04-03T13:02:58;3.00;;;1.70;;
6372;SDS011;3219;51.362;7.074;2023-04-03T13:05:25;5.95;;;1.80;;
6372;SDS011;3219;51.362;7.074;2023-04-03T13:07:54;5.28;;;1.88;;
6372;SDS011;3219;51.362;7.074;2023-04-03T13:10:26;4.88;;;1.90;;
6372;SDS011;3219;51.362;7.074;2023-04-03T13:12:54;2.45;;;1.40;;
6372;SDS011;3219;51.362;7.074;2023-04-03T13:15:23;3.83;;;1.73;;
6372;SDS011;3219;51.362;7.074;2023-04-03T13:17:51;4.25;;;1.67;;
6372;SDS011;3219;51.362;7.074;2023-04-03T13:20:22;4.38;;;1.50;;
6372;SDS011;3219;51.362;7.074;2023-04-03T13:22:52;4.95;;;1.75;;
6372;SDS011;3219;51.362;7.074;2023-04-03T13:25:23;1.90;;;1.50;;
6372;SDS011;3219;51.362;7.074;2023-04-03T13:27:53;4.72;;;1.38;;
6372;SDS011;3219;51.362;7.074;2023-04-03T13:30:22;7.25;;;1.80;;
6372;SDS011;3219;51.362;7.074;2023-04-03T13:32:55;3.45;;;1.80;;
6372;SDS011;3219;51.362;7.074;2023-04-03T13:35:31;4.47;;;1.80;;
6372;SDS011;3219;51.362;7.074;2023-04-03T13:38:03;6.80;;;1.88;;
6372;SDS011;3219;51.362;7.074;2023-04-03T13:40:33;5.85;;;2.00;;
6372;SDS011;3219;51.362;7.074;2023-04-03T13:43:03;4.85;;;1.70;;
6372;SDS011;3219;51.362;7.074;2023-04-03T13:45:32;3.90;;;1.73;;
6372;SDS011;3219;51.362;7.074;2023-04-03T13:48:07;5.78;;;2.50;;
6372;SDS011;3219;51.362;7.074;2023-04-03T13:50:53;2.63;;;1.50;;
6372;SDS011;3219;51.362;7.074;2023-04-03T13:53:22;4.30;;;1.55;;
6372;SDS011;3219;51.362;7.074;2023-04-03T13:55:54;3.45;;;1.50;;
6372;SDS011;3219;51.362;7.074;2023-04-03T13:58:25;4.80;;;1.83;;
6372;SDS011;3219;51.362;7.074;2023-04-03T14:00:54;5.10;;;1.60;;
6372;SDS011;3219;51.362;7.074;2023-04-03T14:05:54;4.70;;;2.25;;
6372;SDS011;3219;51.362;7.074;2023-04-03T14:08:21;4.43;;;1.85;;
6372;SDS011;3219;51.362;7.074;2023-04-03T14:10:48;5.88;;;1.80;;
6372;SDS011;3219;51.362;7.074;2023-04-03T14:13:16;4.85;;;1.77;;
6372;SDS011;3219;51.362;7.074;2023-04-03T14:15:47;4.03;;;2.00;;
6372;SDS011;3219;51.362;7.074;2023-04-03T14:18:16;10.02;;;1.95;;
6372;SDS011;3219;51.362;7.074;2023-04-03T14:20:43;5.38;;;1.88;;
6372;SDS011;3219;51.362;7.074;2023-04-03T14:23:11;4.15;;;1.65;;
6372;SDS011;3219;51.362;7.074;2023-04-03T14:25:38;5.38;;;1.67;;
6372;SDS011;3219;51.362;7.074;2023-04-03T14:28:12;3.15;;;1.75;;
6372;SDS011;3219;51.362;7.074;2023-04-03T14:30:43;5.65;;;1.60;;
6372;SDS011;3219;51.362;7.074;2023-04-03T14:33:13;3.22;;;1.55;;
6372;SDS011;3219;51.362;7.074;2023-04-03T14:35:41;4.85;;;1.88;;
6372;SDS011;3219;51.362;7.074;2023-04-03T14:38:13;4.43;;;1.50;;
6372;SDS011;3219;51.362;7.074;2023-04-03T14:40:49;3.13;;;1.60;;
6372;SDS011;3219;51.362;7.074;2023-04-03T14:43:15;3.63;;;2.00;;
6372;SDS011;3219;51.362;7.074;2023-04-03T14:45:43;4.80;;;1.70;;
6372;SDS011;3219;51.362;7.074;2023-04-03T14:48:10;3.95;;;1.55;;
6372;SDS011;3219;51.362;7.074;2023-04-03T14:50:45;3.15;;;1.52;;
6372;SDS011;3219;51.362;7.074;2023-04-03T14:53:12;3.42;;;1.83;;
6372;SDS011;3219;51.362;7.074;2023-04-03T14:55:40;4.50;;;1.75;;
6372;SDS011;3219;51.362;7.074;2023-04-03T14:58:09;3.33;;;1.83;;
6372;SDS011;3219;51.362;7.074;2023-04-03T15:00:39;4.05;;;2.08;;
6372;SDS011;3219;51.362;7.074;2023-04-03T15:03:08;4.90;;;1.75;;
6372;SDS011;3219;51.362;7.074;2023-04-03T15:05:40;3.45;;;1.70;;
6372;SDS011;3219;51.362;7.074;2023-04-03T15:08:08;2.80;;;1.60;;
6372;SDS011;3219;51.362;7.074;2023-04-03T15:10:46;2.80;;;1.60;;
6372;SDS011;3219;51.362;7.074;2023-04-03T15:13:14;8.48;;;1.90;;
6372;SDS011;3219;51.362;7.074;2023-04-03T15:15:41;4.85;;;1.50;;
6372;SDS011;3219;51.362;7.074;2023-04-03T15:18:10;7.00;;;2.35;;
6372;SDS011;3219;51.362;7.074;2023-04-03T15:20:43;5.93;;;2.13;;
6372;SDS011;3219;51.362;7.074;2023-04-03T15:23:11;3.08;;;1.80;;
6372;SDS011;3219;51.362;7.074;2023-04-03T15:25:40;5.47;;;2.08;;
6372;SDS011;3219;51.362;7.074;2023-04-03T15:28:08;5.00;;;2.17;;
6372;SDS011;3219;51.362;7.074;2023-04-03T15:30:39;5.00;;;1.77;;
6372;SDS011;3219;51.362;7.074;2023-04-03T15:33:06;6.22;;;2.20;;
6372;SDS011;3219;51.362;7.074;2023-04-03T15:35:33;4.47;;;1.75;;
6372;SDS011;3219;51.362;7.074;2023-04-03T15:38:01;4.65;;;1.85;;
6372;SDS011;3219;51.362;7.074;2023-04-03T15:40:28;5.95;;;1.88;;
6372;SDS011;3219;51.362;7.074;2023-04-03T15:42:54;8.18;;;2.13;;
6372;SDS011;3219;51.362;7.074;2023-04-03T15:45:21;5.50;;;1.98;;
6372;SDS011;3219;51.362;7.074;2023-04-03T15:47:48;4.10;;;2.00;;
6372;SDS011;3219;51.362;7.074;2023-04-03T15:50:15;3.28;;;2.08;;
6372;SDS011;3219;51.362;7.074;2023-04-03T15:52:42;3.72;;;1.75;;
6372;SDS011;3219;51.362;7.074;2023-04-03T15:55:10;5.07;;;1.85;;
6372;SDS011;3219;51.362;7.074;2023-04-03T15:57:37;5.03;;;2.00;;
6372;SDS011;3219;51.362;7.074;2023-04-03T16:00:04;5.68;;;2.00;;
6372;SDS011;3219;51.362;7.074;2023-04-03T16:02:33;6.85;;;2.20;;
6372;SDS011;3219;51.362;7.074;2023-04-03T16:05:00;3.88;;;1.73;;
6372;SDS011;3219;51.362;7.074;2023-04-03T16:07:27;3.55;;;1.75;;